Terminal Aerodrome Forecast
Issued by NWS Albany, NY

Home | Current Version | Previous Version | Text Only | Print | Product List | Glossary On
Versions: 1 2 3 4 5 6 7 8 9 10 11 12
000
FTUS41 KALY 250531
TAFALB
TAF
KALB 250531Z 2506/2606 00000KT P6SM SKC
     FM250900 00000KT 6SM BR MIFG FEW003
      TEMPO 2510/2512 1SM BR BKN003
     FM251300 VRB03KT P6SM FEW250
     FM251800 04005KT P6SM FEW050 FEW250
     FM260000 VRB03KT P6SM SKC=

USA.gov is the U.S. government's official web portal to all federal, state and local government web resources and services.